createdAt,value
2023-04-21T00:00:30.368Z,4.47
2023-04-21T00:05:33.499Z,5.07
2023-04-21T00:10:37.252Z,5.10
2023-04-21T00:15:39.375Z,4.07
2023-04-21T00:20:41.711Z,3.93
2023-04-21T00:25:44.946Z,4.77
2023-04-21T00:30:47.155Z,5.10
2023-04-21T00:35:49.358Z,7.57
2023-04-21T00:40:53.121Z,5.97
2023-04-21T00:45:55.394Z,6.40
2023-04-21T00:50:57.832Z,4.97
2023-04-21T00:56:01.743Z,5.10
2023-04-21T01:01:05.687Z,7.00
2023-04-21T01:06:08.375Z,6.57
2023-04-21T01:11:15.641Z,5.93
2023-04-21T01:16:19.320Z,6.47
2023-04-21T01:21:22.097Z,6.07
2023-04-21T01:26:25.547Z,6.00
2023-04-21T01:31:27.657Z,6.47
2023-04-21T01:36:29.739Z,5.90
2023-04-21T01:41:33.476Z,6.60
2023-04-21T01:46:35.708Z,6.57
2023-04-21T01:51:37.970Z,5.83
2023-04-21T01:56:41.687Z,5.40
2023-04-21T02:01:43.965Z,6.37
2023-04-21T02:06:48.152Z,8.30
2023-04-21T02:11:51.624Z,8.20
2023-04-21T02:16:54.043Z,8.10
2023-04-21T02:21:56.404Z,6.23
2023-04-21T02:27:00.735Z,6.60
2023-04-21T02:32:17.920Z,7.83
2023-04-21T02:37:24.005Z,7.30
2023-04-21T02:42:27.264Z,8.70
2023-04-21T02:47:29.245Z,9.33
2023-04-21T02:52:31.632Z,10.07
2023-04-21T02:57:35.533Z,8.97
2023-04-21T03:02:38.087Z,8.80
2023-04-21T03:07:40.571Z,8.23
2023-04-21T03:12:44.212Z,8.53
2023-04-21T03:17:46.410Z,8.73
2023-04-21T03:22:48.844Z,8.50
2023-04-21T03:27:52.357Z,8.97
2023-04-21T03:32:55.768Z,7.93
2023-04-21T03:37:57.811Z,8.57
2023-04-21T03:43:01.003Z,7.73
2023-04-21T03:48:03.890Z,7.83
2023-04-21T03:53:06.695Z,7.83
2023-04-21T03:58:10.529Z,7.70
2023-04-21T04:03:12.860Z,8.60
2023-04-21T04:08:14.859Z,8.83
2023-04-21T04:13:18.836Z,9.70
2023-04-21T04:18:21.261Z,10.40
2023-04-21T04:23:23.500Z,10.60
2023-04-21T04:28:27.036Z,10.23
2023-04-21T04:33:29.404Z,8.83
2023-04-21T04:38:34.916Z,9.00
2023-04-21T04:43:39.297Z,7.10
2023-04-21T04:48:41.905Z,5.27
2023-04-21T04:53:44.159Z,4.60
2023-04-21T04:58:47.715Z,4.40
2023-04-21T05:03:50.014Z,4.70
2023-04-21T05:08:52.435Z,5.37
2023-04-21T05:13:56.148Z,5.47
2023-04-21T05:19:02.225Z,5.93
2023-04-21T05:24:04.457Z,5.07
2023-04-21T05:29:08.207Z,6.00
2023-04-21T05:34:10.456Z,9.50
2023-04-21T05:39:12.799Z,6.37
2023-04-21T05:44:19.059Z,6.13
2023-04-21T05:49:21.484Z,5.60
2023-04-21T05:54:23.959Z,7.70
2023-04-21T05:59:27.462Z,8.23
2023-04-21T06:04:30.066Z,8.63
2023-04-21T06:09:32.530Z,8.53
2023-04-21T06:14:36.136Z,6.73
2023-04-21T06:19:41.801Z,6.00
2023-04-21T06:24:44.054Z,5.20
2023-04-21T06:29:47.860Z,3.57
2023-04-21T06:34:50.142Z,2.57
2023-04-21T06:39:52.542Z,3.40
2023-04-21T06:44:57.157Z,3.30
2023-04-21T06:49:59.317Z,2.30
2023-04-21T06:55:01.504Z,2.00
2023-04-21T07:00:07.174Z,1.27
2023-04-21T07:05:09.581Z,1.40
2023-04-21T07:10:12.333Z,1.27
2023-04-21T07:15:17.457Z,1.60
2023-04-21T07:20:20.953Z,1.60
2023-04-21T07:25:22.847Z,1.93
2023-04-21T07:30:27.065Z,3.23
2023-04-21T07:35:29.444Z,2.80
2023-04-21T07:40:32.088Z,2.50
2023-04-21T07:45:36.028Z,2.03
2023-04-21T07:50:38.416Z,1.60
2023-04-21T07:55:40.720Z,1.60
2023-04-21T08:00:44.900Z,1.43
2023-04-21T08:05:47.415Z,1.20
2023-04-21T08:10:50.031Z,1.20
2023-04-21T08:15:53.672Z,1.30
2023-04-21T08:20:58.200Z,1.50
2023-04-21T08:26:00.598Z,0.90
2023-04-21T08:31:05.055Z,0.90
2023-04-21T08:36:18.280Z,0.87
2023-04-21T08:41:28.992Z,0.53
2023-04-21T08:46:34.107Z,0.60
2023-04-21T08:51:36.697Z,0.50
2023-04-21T08:56:40.771Z,0.80
2023-04-21T09:02:13.097Z,1.00
2023-04-21T09:07:32.771Z,0.70
2023-04-21T09:12:35.072Z,1.10
2023-04-21T09:17:38.866Z,0.90
2023-04-21T09:22:41.264Z,1.00
2023-04-21T09:27:44.020Z,1.27
2023-04-21T09:32:47.499Z,1.10
2023-04-21T09:37:49.637Z,0.60
2023-04-21T09:42:52.194Z,0.50
2023-04-21T09:47:58.362Z,0.73
2023-04-21T09:53:03.813Z,0.60
2023-04-21T09:58:09.913Z,0.52
2023-04-21T10:03:15.836Z,0.45
2023-04-21T10:08:19.163Z,0.20
2023-04-21T10:13:22.451Z,0.38
2023-04-21T10:18:26.478Z,0.40
2023-04-21T10:23:33.450Z,0.40
2023-04-21T10:28:47.399Z,0.30
2023-04-21T10:34:21.815Z,0.45
2023-04-21T10:39:28.115Z,0.40
2023-04-21T10:44:30.999Z,0.50
2023-04-21T10:49:42.164Z,0.40
2023-04-21T10:54:46.568Z,0.38
2023-04-21T10:59:49.766Z,0.30
2023-04-21T11:04:54.646Z,0.30
2023-04-21T11:10:01.031Z,0.30
2023-04-21T11:15:08.006Z,0.30
2023-04-21T11:20:12.313Z,0.30
2023-04-21T11:25:19.635Z,0.30
2023-04-21T11:30:21.930Z,0.40
2023-04-21T11:35:25.554Z,0.30
2023-04-21T11:40:27.716Z,0.30
2023-04-21T11:45:30.833Z,0.30
2023-04-21T11:50:37.257Z,0.40
2023-04-21T11:55:43.138Z,0.32
2023-04-21T12:00:47.091Z,0.40
2023-04-21T12:05:58.502Z,0.30
2023-04-21T12:11:01.268Z,0.40
2023-04-21T12:16:05.037Z,0.50
2023-04-21T12:21:08.766Z,0.73
2023-04-21T12:26:11.157Z,0.93
2023-04-21T12:31:14.261Z,0.60
2023-04-21T12:36:18.494Z,0.50
2023-04-21T12:41:21.646Z,0.30
2023-04-21T12:46:24.237Z,0.20
2023-04-21T12:51:28.565Z,0.40
2023-04-21T12:56:32.675Z,0.70
2023-04-21T13:01:35.099Z,0.77
2023-04-21T13:06:40.298Z,0.10
2023-04-21T13:11:42.275Z,0.45
2023-04-21T13:16:45.045Z,0.20
2023-04-21T13:21:50.484Z,0.20
2023-04-21T13:26:53.702Z,0.22
2023-04-21T13:31:56.025Z,0.50
2023-04-21T13:36:59.696Z,0.45
2023-04-21T13:42:02.708Z,0.20
2023-04-21T13:47:07.503Z,0.10
2023-04-21T13:52:12.552Z,0.20
2023-04-21T13:57:14.843Z,0.30
2023-04-21T14:02:17.200Z,0.23
2023-04-21T14:07:23.101Z,0.40
2023-04-21T14:12:27.274Z,0.53
2023-04-21T14:17:29.828Z,0.20
2023-04-21T14:22:33.424Z,0.20
2023-04-21T14:27:35.908Z,0.20
2023-04-21T14:32:38.500Z,0.57
2023-04-21T14:37:42.735Z,0.20
2023-04-21T14:42:45.224Z,0.30
2023-04-21T14:47:47.471Z,0.30
2023-04-21T14:52:51.022Z,0.40
2023-04-21T14:57:53.376Z,0.50
2023-04-21T15:02:55.720Z,0.30
2023-04-21T15:07:59.703Z,0.33
2023-04-21T15:13:01.897Z,0.27
2023-04-21T15:18:04.196Z,0.40
2023-04-21T15:23:07.593Z,0.37
2023-04-21T15:28:10.446Z,0.30
2023-04-21T15:33:12.733Z,0.40
2023-04-21T15:38:16.106Z,0.50
2023-04-21T15:43:18.319Z,0.47
2023-04-21T15:48:22.331Z,0.50
2023-04-21T15:53:25.945Z,0.40
2023-04-21T15:58:28.028Z,0.30
2023-04-21T16:03:30.146Z,0.30
2023-04-21T16:08:33.941Z,1.30
2023-04-21T16:13:36.701Z,1.38
2023-04-21T16:18:38.893Z,1.50
2023-04-21T16:23:42.773Z,1.60
2023-04-21T16:28:44.871Z,1.73
2023-04-21T16:33:47.234Z,1.55
2023-04-21T16:38:51.025Z,1.20
2023-04-21T16:43:53.175Z,1.67
2023-04-21T16:48:55.284Z,1.80
2023-04-21T16:53:59.133Z,1.70
2023-04-21T16:59:00.986Z,2.13
2023-04-21T17:04:03.752Z,2.00
2023-04-21T17:09:08.757Z,2.17
2023-04-21T17:14:10.951Z,3.00
2023-04-21T17:19:13.185Z,3.07
2023-04-21T17:24:16.580Z,2.73
2023-04-21T17:29:18.732Z,3.60
2023-04-21T17:34:21.106Z,3.13
2023-04-21T17:39:24.745Z,3.00
2023-04-21T17:44:27.431Z,3.80
2023-04-21T17:49:29.776Z,3.47
2023-04-21T17:54:33.916Z,3.53
2023-04-21T17:59:36.285Z,3.37
2023-04-21T18:04:38.458Z,3.00
2023-04-21T18:09:42.708Z,3.23
2023-04-21T18:14:45.501Z,2.50
2023-04-21T18:19:47.833Z,2.73
2023-04-21T18:24:52.197Z,2.30
2023-04-21T18:29:54.497Z,2.70
2023-04-21T18:34:56.523Z,3.23
2023-04-21T18:40:00.240Z,2.43
2023-04-21T18:45:10.877Z,2.53
2023-04-21T18:50:28.135Z,2.93
2023-04-21T18:56:09.305Z,3.13
2023-04-21T19:01:23.683Z,1.73
2023-04-21T19:06:33.553Z,1.77
2023-04-21T19:11:38.781Z,1.90
2023-04-21T19:16:44.883Z,1.50
2023-04-21T19:21:50.817Z,1.50
2023-04-21T19:26:57.463Z,1.57
2023-04-21T19:32:10.978Z,1.73
2023-04-21T19:37:30.664Z,1.70
2023-04-21T19:48:43.030Z,2.17
2023-04-21T19:54:10.089Z,2.67
2023-04-21T19:59:18.243Z,2.67
2023-04-21T20:04:21.461Z,2.53
2023-04-21T20:09:23.812Z,2.53
2023-04-21T20:14:28.545Z,2.40
2023-04-21T20:19:31.837Z,2.40
2023-04-21T20:24:38.088Z,2.00
2023-04-21T20:29:42.310Z,2.20
2023-04-21T20:34:44.620Z,2.20
2023-04-21T20:39:48.016Z,2.07
2023-04-21T20:44:52.156Z,1.67
2023-04-21T20:49:54.966Z,1.30
2023-04-21T20:54:57.485Z,1.20
2023-04-21T21:00:36.124Z,1.30
2023-04-21T21:05:41.112Z,1.33
2023-04-21T21:10:45.461Z,1.60
2023-04-21T21:15:53.731Z,1.53
2023-04-21T21:21:02.818Z,1.70
2023-04-21T21:26:11.165Z,1.63
2023-04-21T21:31:14.816Z,2.13
2023-04-21T21:36:17.225Z,4.83
2023-04-21T21:41:21.409Z,2.37
2023-04-21T21:46:24.898Z,1.40
2023-04-21T21:51:29.032Z,1.20
2023-04-21T21:56:31.244Z,0.83
2023-04-21T22:01:35.101Z,1.67
2023-04-21T22:06:38.462Z,1.00
2023-04-21T22:11:40.940Z,1.00
2023-04-21T22:16:45.751Z,1.00
2023-04-21T22:21:47.621Z,0.70
2023-04-21T22:26:49.731Z,0.70
2023-04-21T22:31:52.963Z,0.90
2023-04-21T22:36:55.016Z,0.73
2023-04-21T22:41:57.576Z,0.90
2023-04-21T22:47:01.284Z,0.70
2023-04-21T22:52:04.128Z,1.07
2023-04-21T22:57:07.078Z,1.10
2023-04-21T23:02:10.764Z,1.40
2023-04-21T23:07:13.086Z,1.10
2023-04-21T23:12:15.557Z,0.80
2023-04-21T23:17:19.037Z,0.60
2023-04-21T23:22:22.518Z,0.60
2023-04-21T23:27:26.304Z,0.60
2023-04-21T23:32:29.840Z,0.47
2023-04-21T23:37:32.002Z,0.60
2023-04-21T23:42:34.564Z,0.40
2023-04-21T23:47:37.912Z,0.53
2023-04-21T23:52:42.296Z,0.60
2023-04-21T23:57:46.990Z,0.50
